Time;durP1;ratioP1;P1;durP2;ratioP2;P2;SDS_P1;SDS_P2;PMS_P1;PMS_P2;Temp;Humidity;BMP_temperature;BMP_pressure;BME280_temperature;BME280_humidity;BME280_pressure;Samples;Min_cycle;Max_cycle;Signal;HPM_P1;HPM_P2
2022/09/04 00:01:52;;;;;;;5.47;1.70;;;18.00;91.30;;;;;;5073368;28;20123;-56
2022/09/04 00:04:41;;;;;;;3.65;1.60;;;18.00;91.30;;;;;;5073343;28;20182;-56
2022/09/04 00:07:27;;;;;;;6.13;2.08;;;18.00;91.50;;;;;;5072952;28;20078;-57
2022/09/04 00:10:30;;;;;;;3.55;1.40;;;18.00;91.40;;;;;;5073358;28;20056;-56
2022/09/04 00:13:03;;;;;;;3.72;1.23;;;17.90;91.60;;;;;;5073203;28;20056;-57
2022/09/04 00:15:35;;;;;;;4.70;1.25;;;17.90;91.60;;;;;;5072960;28;20048;-66
2022/09/04 00:18:38;;;;;;;2.55;1.55;;;17.80;91.70;;;;;;5073369;28;20053;-67
2022/09/04 00:21:34;;;;;;;5.47;1.40;;;17.80;91.80;;;;;;5073188;28;20044;-67
2022/09/04 00:24:18;;;;;;;3.28;1.52;;;17.80;91.60;;;;;;4991600;28;20054;-66
2022/09/04 00:26:55;;;;;;;6.10;1.63;;;17.80;91.80;;;;;;4991657;28;20512;-67
2022/09/04 00:29:36;;;;;;;6.88;1.73;;;17.70;91.70;;;;;;4991631;28;20497;-67
2022/09/04 00:32:39;;;;;;;8.02;2.38;;;17.70;91.80;;;;;;4994538;28;20555;-67
2022/09/04 00:35:18;;;;;;;22.92;2.15;;;17.60;91.90;;;;;;4994954;28;20062;-67
2022/09/04 00:38:00;;;;;;;2.40;1.50;;;17.60;91.90;;;;;;4995131;28;20090;-67
2022/09/04 00:40:37;;;;;;;7.95;1.90;;;17.60;91.80;;;;;;4995081;28;20043;-67
2022/09/04 00:43:23;;;;;;;3.35;1.50;;;17.60;91.90;;;;;;4995029;28;20038;-67
2022/09/04 00:46:07;;;;;;;5.88;2.03;;;17.50;91.90;;;;;;4995023;28;20505;-67
2022/09/04 00:49:04;;;;;;;3.17;1.63;;;17.50;91.80;;;;;;4995027;28;20051;-66
2022/09/04 00:51:49;;;;;;;2.83;1.58;;;17.50;92.10;;;;;;4994913;28;20046;-67
2022/09/04 00:54:20;;;;;;;4.90;1.80;;;17.50;92.00;;;;;;4994883;28;20448;-67
2022/09/04 00:57:14;;;;;;;7.97;1.90;;;17.50;91.80;;;;;;4994832;28;20054;-67
2022/09/04 00:59:58;;;;;;;7.72;2.13;;;17.40;92.20;;;;;;4975320;28;20398;-67
2022/09/04 01:02:51;;;;;;;8.07;1.38;;;17.40;92.20;;;;;;5034377;28;20045;-67
2022/09/04 01:05:38;;;;;;;5.32;1.85;;;17.30;92.30;;;;;;5034016;28;20053;-67
2022/09/04 01:09:17;;;;;;;5.55;2.00;;;17.30;92.40;;;;;;5033948;28;20140;-67
2022/09/04 01:11:51;;;;;;;4.13;1.70;;;17.30;92.50;;;;;;4880080;29;20053;-67
2022/09/04 01:14:20;;;;;;;2.65;1.40;;;17.20;92.30;;;;;;4880002;29;20044;-67
2022/09/04 01:17:14;;;;;;;5.85;1.35;;;17.20;92.30;;;;;;4880208;29;20082;-67
2022/09/04 01:19:43;;;;;;;4.05;1.88;;;17.20;92.50;;;;;;4880024;29;20442;-67
2022/09/04 01:22:32;;;;;;;5.00;1.65;;;17.20;92.40;;;;;;4879977;29;20097;-67
2022/09/04 01:25:26;;;;;;;6.55;1.80;;;17.10;92.40;;;;;;4879810;29;20048;-67
2022/09/04 01:28:00;;;;;;;6.28;1.85;;;17.10;92.70;;;;;;4879808;29;20060;-66
2022/09/04 01:30:30;;;;;;;4.43;1.40;;;17.00;92.80;;;;;;4879745;29;20060;-67
2022/09/04 01:33:00;;;;;;;6.18;1.80;;;16.90;92.90;;;;;;4879616;29;20053;-65
2022/09/04 01:35:54;;;;;;;5.82;2.05;;;17.00;92.70;;;;;;4879241;29;20057;-67
2022/09/04 01:38:49;;;;;;;3.97;1.85;;;17.00;93.10;;;;;;4879682;29;20408;-67
2022/09/04 01:41:24;;;;;;;7.15;3.42;;;16.90;93.10;;;;;;4805819;29;20053;-67
2022/09/04 01:43:51;;;;;;;7.65;2.80;;;16.90;92.90;;;;;;4860210;29;20049;-66
2022/09/04 01:46:28;;;;;;;5.63;2.33;;;16.90;93.00;;;;;;4931057;29;20138;-66
2022/09/04 01:48:56;;;;;;;6.75;2.80;;;16.80;93.10;;;;;;4955126;29;20066;-67
2022/09/04 01:51:37;;;;;;;4.90;2.30;;;16.80;93.10;;;;;;4955121;29;20047;-66
2022/09/04 01:54:28;;;;;;;3.63;2.20;;;16.80;93.50;;;;;;4955022;29;20122;-66
2022/09/04 01:57:22;;;;;;;3.10;1.90;;;16.80;93.40;;;;;;4954991;29;20051;-67
2022/09/04 01:59:59;;;;;;;3.70;2.00;;;16.70;93.30;;;;;;4954955;29;20054;-65
2022/09/04 02:02:52;;;;;;;6.82;2.15;;;16.70;93.40;;;;;;4954751;29;20050;-67
2022/09/04 02:06:00;;;;;;;3.47;1.40;;;16.60;93.70;;;;;;4954826;29;20058;-67
2022/09/04 02:08:29;;;;;;;4.40;2.28;;;16.60;93.80;;;;;;4970993;28;20043;-66
2022/09/04 02:10:58;;;;;;;8.48;2.13;;;16.60;93.80;;;;;;4954578;29;20047;-67
2022/09/04 02:13:52;;;;;;;6.90;2.40;;;16.60;93.90;;;;;;4954609;29;20459;-66
2022/09/04 02:16:56;;;;;;;7.10;2.00;;;16.60;94.00;;;;;;4954568;29;20055;-66
2022/09/04 02:19:35;;;;;;;8.98;2.45;;;16.50;94.00;;;;;;5074722;28;20053;-67
2022/09/04 02:22:01;;;;;;;;;;;16.50;94.00;;;;;;5074886;28;20048;-66
2022/09/04 02:25:01;;;;;;;4.97;1.80;;;16.40;94.00;;;;;;5074494;28;19920;-66
2022/09/04 02:27:45;;;;;;;3.38;2.22;;;16.40;94.00;;;;;;5070499;28;20048;-66
2022/09/04 02:30:15;;;;;;;6.22;1.67;;;16.40;94.50;;;;;;5074536;28;20048;-67
2022/09/04 02:33:01;;;;;;;6.55;1.67;;;16.40;94.30;;;;;;5074363;28;20047;-67
2022/09/04 02:35:42;;;;;;;8.77;2.17;;;16.30;94.50;;;;;;5074366;28;20048;-67
2022/09/04 02:38:31;;;;;;;6.88;1.52;;;16.30;94.40;;;;;;5074389;28;20062;-67
2022/09/04 02:41:02;;;;;;;5.35;2.00;;;16.30;94.50;;;;;;5074299;28;20398;-67
2022/09/04 02:43:47;;;;;;;5.43;2.00;;;16.20;94.40;;;;;;5073991;28;20580;-67
2022/09/04 02:46:48;;;;;;;2.45;1.88;;;16.20;94.50;;;;;;5074146;28;20056;-66
2022/09/04 02:49:19;;;;;;;;;;;16.20;94.80;;;;;;5074620;28;20391;-67
2022/09/04 02:52:03;;;;;;;3.70;2.25;;;16.10;94.80;;;;;;5074029;28;20285;-66
2022/09/04 02:54:42;;;;;;;4.75;2.47;;;16.20;95.10;;;;;;5074003;28;20080;-67
2022/09/04 02:57:28;;;;;;;2.78;1.50;;;16.10;94.80;;;;;;5073854;28;20047;-67
2022/09/04 02:59:53;;;;;;;11.40;2.10;;;16.10;94.90;;;;;;5073764;28;20123;-66
2022/09/04 03:02:31;;;;;;;6.30;1.98;;;16.00;94.80;;;;;;5055904;28;20146;-67
2022/09/04 03:05:03;;;;;;;7.78;2.00;;;16.10;94.80;;;;;;5074004;28;20044;-66
2022/09/04 03:07:45;;;;;;;4.88;1.80;;;16.00;95.00;;;;;;5073997;28;20098;-67
2022/09/04 03:10:18;;;;;;;4.35;1.90;;;16.00;95.10;;;;;;5073919;28;20053;-67
2022/09/04 03:13:02;;;;;;;6.75;1.80;;;16.00;95.20;;;;;;5073747;28;20048;-67
2022/09/04 03:15:45;;;;;;;5.38;1.90;;;16.00;95.00;;;;;;5073894;28;20137;-67
2022/09/04 03:18:33;;;;;;;5.00;2.00;;;15.90;95.10;;;;;;5073651;28;20056;-67
2022/09/04 03:21:22;;;;;;;5.68;1.88;;;16.00;95.20;;;;;;5073759;28;20052;-67
2022/09/04 03:23:54;;;;;;;5.65;1.85;;;15.90;95.30;;;;;;5073806;28;20395;-67
2022/09/04 03:26:51;;;;;;;3.10;1.67;;;15.90;95.20;;;;;;5073708;28;20051;-67
2022/09/04 03:29:46;;;;;;;4.05;2.00;;;15.90;95.20;;;;;;4992247;28;20489;-67
2022/09/04 03:32:32;;;;;;;7.18;2.08;;;15.90;95.60;;;;;;4992676;28;20053;-67
2022/09/04 03:35:13;;;;;;;6.65;1.90;;;15.70;95.70;;;;;;4972510;28;20486;-66
2022/09/04 03:37:59;;;;;;;2.42;1.67;;;15.80;96.00;;;;;;4972661;28;20055;-67
2022/09/04 03:41:04;;;;;;;7.35;2.20;;;15.80;95.50;;;;;;4972679;28;20545;-68
2022/09/04 03:44:01;;;;;;;3.85;2.00;;;15.80;95.70;;;;;;4972860;28;20065;-67
2022/09/04 03:47:03;;;;;;;3.40;2.00;;;15.80;95.80;;;;;;4972346;28;20429;-67
2022/09/04 03:49:33;;;;;;;4.95;2.05;;;15.70;95.90;;;;;;4953358;28;20051;-67
2022/09/04 03:52:23;;;;;;;6.97;2.28;;;15.70;95.70;;;;;;4953181;29;20545;-67
2022/09/04 03:55:26;;;;;;;6.03;1.85;;;15.70;96.00;;;;;;4953828;29;20058;-67
2022/09/04 03:58:01;;;;;;;6.75;1.92;;;15.70;96.00;;;;;;4953265;28;20047;-67
2022/09/04 04:00:34;;;;;;;2.80;1.70;;;15.60;95.90;;;;;;4953314;28;20070;-67
2022/09/04 04:03:20;;;;;;;3.40;2.03;;;15.60;96.10;;;;;;4953141;29;20044;-67
2022/09/04 04:06:00;;;;;;;4.88;2.15;;;15.60;96.30;;;;;;4985070;28;20460;-67
2022/09/04 04:09:01;;;;;;;3.33;2.33;;;15.50;96.50;;;;;;5015455;28;20085;-67
2022/09/04 04:11:53;;;;;;;4.50;2.05;;;15.50;96.60;;;;;;5019736;28;20050;-67
2022/09/04 04:14:50;;;;;;;4.15;2.10;;;15.50;96.60;;;;;;5035060;28;20045;-66
2022/09/04 04:17:31;;;;;;;4.50;2.20;;;15.50;96.60;;;;;;5035240;28;20528;-67
2022/09/04 04:20:24;;;;;;;6.40;2.10;;;15.40;96.70;;;;;;5034742;28;20041;-67
2022/09/04 04:22:59;;;;;;;3.25;2.03;;;15.40;96.90;;;;;;5034907;28;20053;-67
2022/09/04 04:25:52;;;;;;;4.63;2.20;;;15.40;96.80;;;;;;5036745;28;20447;-66
2022/09/04 04:28:27;;;;;;;8.32;2.72;;;15.30;97.00;;;;;;5076862;28;20044;-67
2022/09/04 04:31:02;;;;;;;6.10;2.05;;;15.30;97.00;;;;;;5076808;28;20127;-66
2022/09/04 04:33:36;;;;;;;3.20;1.92;;;15.40;96.80;;;;;;5076717;28;20437;-66
2022/09/04 04:36:20;;;;;;;4.90;1.80;;;15.40;96.90;;;;;;5076268;28;20056;-67
2022/09/04 04:38:56;;;;;;;3.58;2.03;;;15.30;97.40;;;;;;5076690;28;20045;-67
2022/09/04 04:42:05;;;;;;;3.33;2.00;;;15.20;97.10;;;;;;5076491;28;20124;-67
2022/09/04 04:47:26;;;;;;;9.00;2.00;;;15.30;97.10;;;;;;5076524;28;20080;-66
2022/09/04 04:49:57;;;;;;;6.60;2.58;;;15.40;97.10;;;;;;5076419;28;20055;-67
2022/09/04 04:52:28;;;;;;;3.67;2.20;;;15.40;97.10;;;;;;5058455;28;20506;-66
2022/09/04 04:55:12;;;;;;;5.38;2.10;;;15.30;97.30;;;;;;5076106;28;20055;-67
2022/09/04 04:57:56;;;;;;;3.28;2.05;;;15.40;97.40;;;;;;5076019;28;20079;-66
2022/09/04 05:00:46;;;;;;;3.58;2.03;;;15.30;97.30;;;;;;5076271;28;20048;-66
2022/09/04 05:03:33;;;;;;;9.48;2.00;;;15.20;97.50;;;;;;5076710;28;20040;-66
2022/09/04 05:06:06;;;;;;;5.57;2.28;;;15.30;97.30;;;;;;4994701;28;20050;-67
2022/09/04 05:09:01;;;;;;;3.90;2.58;;;15.30;97.40;;;;;;4994759;28;20459;-66
2022/09/04 05:12:09;;;;;;;8.38;2.47;;;15.30;97.60;;;;;;4994564;28;20058;-67
2022/09/04 05:14:47;;;;;;;3.13;1.70;;;15.30;97.40;;;;;;4994433;28;20066;-67
2022/09/04 05:17:42;;;;;;;5.28;2.45;;;15.30;97.50;;;;;;4993192;28;20042;-67
2022/09/04 05:20:26;;;;;;;7.85;2.00;;;15.30;97.50;;;;;;4994429;28;20112;-67
2022/09/04 05:23:13;;;;;;;4.93;1.95;;;15.30;97.90;;;;;;4994249;28;20038;-67
2022/09/04 05:25:56;;;;;;;3.78;2.13;;;15.20;97.90;;;;;;4994461;28;20046;-67
2022/09/04 05:28:43;;;;;;;5.93;2.33;;;15.20;97.80;;;;;;4994246;28;20050;-67
2022/09/04 05:31:23;;;;;;;6.82;2.10;;;15.30;97.90;;;;;;4993842;28;20042;-67
2022/09/04 05:34:01;;;;;;;6.53;2.20;;;15.20;97.80;;;;;;4994142;28;20409;-67
2022/09/04 05:36:39;;;;;;;6.35;2.17;;;15.30;97.90;;;;;;4993857;28;20058;-66
2022/09/04 05:39:04;;;;;;;5.35;2.13;;;15.30;97.90;;;;;;4993941;28;20043;-67
2022/09/04 05:42:09;;;;;;;5.47;2.38;;;15.30;97.80;;;;;;4994050;28;20485;-67
2022/09/04 05:45:00;;;;;;;9.35;2.33;;;15.40;98.20;;;;;;5033320;28;20401;-67
2022/09/04 05:47:47;;;;;;;4.60;2.22;;;15.40;98.10;;;;;;5016504;28;20057;-67
2022/09/04 05:50:50;;;;;;;5.53;2.20;;;15.50;98.20;;;;;;5033061;28;20136;-67
2022/09/04 05:53:33;;;;;;;6.43;3.00;;;15.60;98.20;;;;;;5033059;28;20049;-67
2022/09/04 05:56:01;;;;;;;4.30;2.45;;;15.60;98.10;;;;;;5033020;28;20060;-67
2022/09/04 05:58:52;;;;;;;4.68;2.72;;;15.70;97.90;;;;;;5032983;28;20042;-65
2022/09/04 06:01:37;;;;;;;6.68;2.70;;;15.70;98.00;;;;;;5033430;28;20045;-66
2022/09/04 06:04:32;;;;;;;8.38;2.95;;;15.70;98.00;;;;;;5032904;28;20434;-67
2022/09/04 06:07:33;;;;;;;7.75;2.45;;;15.80;98.00;;;;;;5032966;28;20053;-67
2022/09/04 06:10:07;;;;;;;7.47;2.50;;;15.80;97.70;;;;;;4954564;29;20047;-67
2022/09/04 06:12:54;;;;;;;3.58;2.40;;;15.80;98.30;;;;;;4954791;29;20502;-67
2022/09/04 06:16:02;;;;;;;7.03;3.00;;;15.90;97.90;;;;;;4954614;29;20047;-67
2022/09/04 06:18:48;;;;;;;5.22;3.05;;;16.00;98.10;;;;;;4860370;29;20117;-67
2022/09/04 06:21:42;;;;;;;10.18;3.35;;;16.00;98.00;;;;;;4860642;29;20128;-67
2022/09/04 06:24:19;;;;;;;8.20;3.08;;;16.10;97.90;;;;;;4860065;29;20492;-67
2022/09/04 06:26:48;;;;;;;7.63;3.25;;;16.10;97.80;;;;;;4860240;29;20049;-67
2022/09/04 06:29:36;;;;;;;5.65;2.80;;;16.10;97.90;;;;;;4859780;29;20057;-67
2022/09/04 06:32:07;;;;;;;7.72;2.88;;;16.20;97.70;;;;;;4846678;29;20108;-67
2022/09/04 06:34:51;;;;;;;6.18;2.97;;;16.40;97.60;;;;;;4859966;29;20065;-66
2022/09/04 06:37:40;;;;;;;10.00;2.97;;;16.40;97.80;;;;;;4843670;29;20053;-67
2022/09/04 06:40:42;;;;;;;6.55;2.50;;;16.50;97.70;;;;;;4860110;29;20067;-67
2022/09/04 06:43:36;;;;;;;6.00;2.75;;;16.60;97.90;;;;;;4874227;29;20499;-66
2022/09/04 06:46:17;;;;;;;7.15;2.42;;;16.60;97.60;;;;;;4934928;29;20039;-67
2022/09/04 06:48:51;;;;;;;6.90;2.33;;;16.90;97.40;;;;;;4935038;29;20127;-66
2022/09/04 06:51:41;;;;;;;4.63;2.20;;;17.10;97.20;;;;;;4918956;29;20054;-66
2022/09/04 06:54:07;;;;;;;;;;;17.30;96.50;;;;;;4939538;28;20057;-65
2022/09/04 06:56:41;;;;;;;5.10;2.30;;;17.50;96.60;;;;;;5012200;28;19971;-66
2022/09/04 06:59:23;;;;;;;8.07;3.15;;;17.70;96.50;;;;;;5012340;28;20046;-66
2022/09/04 07:02:15;;;;;;;6.47;2.40;;;17.90;96.40;;;;;;4996352;28;20396;-66
2022/09/04 07:04:50;;;;;;;3.17;2.33;;;18.20;95.70;;;;;;5012199;28;20049;-57
2022/09/04 07:07:37;;;;;;;3.08;1.98;;;18.40;95.30;;;;;;5012202;28;20050;-57
2022/09/04 07:10:16;;;;;;;7.60;2.50;;;18.60;95.40;;;;;;5012082;28;20073;-58
2022/09/04 07:13:16;;;;;;;6.05;2.53;;;18.80;94.90;;;;;;5011900;28;20112;-58
2022/09/04 07:16:30;;;;;;;7.60;2.70;;;19.00;95.00;;;;;;5012085;28;20054;-58
2022/09/04 07:19:16;;;;;;;4.25;2.65;;;19.30;95.20;;;;;;4953544;29;20063;-57
2022/09/04 07:22:03;;;;;;;4.25;2.65;;;19.50;94.20;;;;;;4953655;29;20058;-58
2022/09/04 07:24:50;;;;;;;3.00;2.40;;;19.80;95.00;;;;;;4992267;28;20144;-56
2022/09/04 07:27:54;;;;;;;6.68;2.10;;;20.30;94.10;;;;;;4992223;28;20136;-57
2022/09/04 07:30:24;;;;;;;4.80;2.53;;;21.30;93.00;;;;;;4990079;28;20038;-57
2022/09/04 07:32:55;;;;;;;9.52;2.53;;;22.10;93.10;;;;;;4992264;28;20061;-57
2022/09/04 07:35:49;;;;;;;3.95;2.25;;;22.80;91.60;;;;;;4991843;28;20054;-57
2022/09/04 07:38:39;;;;;;;3.50;2.70;;;23.20;90.80;;;;;;4992155;28;20086;-57
2022/09/04 07:41:34;;;;;;;5.90;2.30;;;23.20;90.60;;;;;;4993696;28;20477;-56
2022/09/04 07:44:22;;;;;;;3.40;2.03;;;23.70;90.20;;;;;;4994868;28;20046;-59
2022/09/04 07:47:00;;;;;;;5.03;2.80;;;23.60;90.00;;;;;;4996265;28;20600;-57
2022/09/04 07:49:40;;;;;;;8.77;2.85;;;23.20;90.30;;;;;;4996197;28;20054;-57
2022/09/04 07:52:38;;;;;;;7.70;2.30;;;23.90;90.20;;;;;;4995999;28;20050;-57
2022/09/04 07:55:16;;;;;;;5.43;2.10;;;23.60;90.10;;;;;;5028229;28;20061;-56
2022/09/04 07:58:15;;;;;;;5.07;2.25;;;23.80;90.40;;;;;;5057416;28;20045;-57
2022/09/04 08:00:55;;;;;;;4.68;2.50;;;24.40;90.10;;;;;;5057829;28;20045;-57
2022/09/04 08:03:28;;;;;;;5.55;2.15;;;25.10;89.80;;;;;;5056275;28;20480;-56
2022/09/04 08:06:14;;;;;;;4.90;2.50;;;25.40;89.00;;;;;;5057367;28;20048;-57
2022/09/04 08:08:55;;;;;;;6.82;2.45;;;25.40;88.40;;;;;;5057328;28;20430;-57
2022/09/04 08:11:51;;;;;;;3.80;2.08;;;26.10;88.20;;;;;;5057269;28;20047;-57
2022/09/04 08:14:26;;;;;;;4.78;1.92;;;26.30;88.70;;;;;;5057210;28;20427;-57
2022/09/04 08:17:23;;;;;;;3.90;2.08;;;26.80;87.90;;;;;;5057119;28;20048;-57
2022/09/04 08:20:01;;;;;;;5.35;2.08;;;27.00;85.20;;;;;;4995864;28;20138;-57
2022/09/04 08:22:42;;;;;;;3.33;1.80;;;27.30;87.20;;;;;;4995650;28;20054;-57
2022/09/04 08:25:27;;;;;;;6.10;2.28;;;26.90;86.20;;;;;;4995511;28;20086;-56
2022/09/04 08:28:16;;;;;;;4.30;2.17;;;27.40;85.20;;;;;;4995430;28;20061;-57
2022/09/04 08:30:55;;;;;;;5.45;1.60;;;28.00;85.40;;;;;;4995449;28;20109;-57
2022/09/04 08:33:23;;;;;;;;;;;28.20;85.70;;;;;;4995777;28;20047;-57
2022/09/04 08:35:49;;;;;;;3.97;1.83;;;28.60;83.60;;;;;;4995051;28;19944;-55
2022/09/04 08:38:43;;;;;;;4.22;1.58;;;29.10;85.20;;;;;;4995234;28;20604;-58
2022/09/04 08:41:12;;;;;;;3.45;1.95;;;29.60;83.00;;;;;;4937180;29;20047;-56
2022/09/04 08:44:28;;;;;;;4.32;1.90;;;29.70;83.90;;;;;;4937306;29;20044;-56
2022/09/04 08:47:17;;;;;;;5.15;1.75;;;29.20;81.80;;;;;;4937154;29;20052;-57
2022/09/04 08:49:45;;;;;;;5.13;1.70;;;29.50;83.90;;;;;;4937095;29;20511;-57
2022/09/04 08:52:32;;;;;;;4.05;1.83;;;30.20;83.50;;;;;;4920904;29;20200;-57
2022/09/04 08:55:31;;;;;;;4.65;1.70;;;30.40;82.80;;;;;;4936987;29;20067;-57
2022/09/04 08:58:19;;;;;;;5.90;1.73;;;30.20;83.20;;;;;;4898954;29;20053;-57
2022/09/04 09:01:09;;;;;;;2.63;1.83;;;30.90;83.20;;;;;;4861785;29;20049;-57
2022/09/04 09:03:46;;;;;;;7.22;1.85;;;30.60;80.70;;;;;;4861602;29;20378;-58
2022/09/04 09:06:15;;;;;;;4.55;1.90;;;30.90;82.30;;;;;;4861739;29;20050;-57
2022/09/04 09:08:56;;;;;;;8.40;2.10;;;30.70;82.30;;;;;;4861697;29;20073;-57
2022/09/04 09:11:56;;;;;;;3.45;1.55;;;31.10;82.10;;;;;;4861594;29;20060;-58
2022/09/04 09:14:52;;;;;;;4.40;1.90;;;31.30;81.40;;;;;;4842983;29;20054;-58
2022/09/04 09:17:46;;;;;;;2.67;1.80;;;31.40;81.10;;;;;;4857265;29;20538;-57
2022/09/04 09:20:24;;;;;;;3.80;2.42;;;30.90;81.60;;;;;;4879945;29;20508;-58
2022/09/04 09:23:08;;;;;;;;;;;30.50;82.20;;;;;;4880267;29;20492;-58
2022/09/04 09:26:05;;;;;;;4.15;1.50;;;30.30;81.50;;;;;;4879936;29;20280;-57
2022/09/04 09:28:49;;;;;;;3.35;1.50;;;30.40;81.40;;;;;;4879684;29;20105;-58
2022/09/04 09:31:47;;;;;;;2.08;1.42;;;30.30;81.80;;;;;;4879908;29;20052;-57
2022/09/04 09:34:36;;;;;;;2.78;1.63;;;30.50;81.70;;;;;;4908862;29;20055;-57
2022/09/04 09:37:40;;;;;;;4.90;1.63;;;29.80;81.90;;;;;;4946441;28;20125;-57
2022/09/04 09:40:30;;;;;;;1.73;1.38;;;30.00;82.30;;;;;;4993877;28;20051;-57
2022/09/04 09:43:01;;;;;;;2.20;1.40;;;29.90;82.70;;;;;;4977941;28;20061;-58
2022/09/04 09:45:52;;;;;;;3.90;1.52;;;29.80;82.20;;;;;;4993574;28;20456;-58
2022/09/04 09:48:30;;;;;;;10.13;1.80;;;29.40;82.50;;;;;;4993384;28;20057;-58
2022/09/04 09:51:14;;;;;;;2.88;1.30;;;28.80;83.40;;;;;;5028600;28;20450;-58
2022/09/04 09:54:12;;;;;;;4.00;1.50;;;28.50;84.80;;;;;;5055238;28;20052;-57
2022/09/04 09:57:00;;;;;;;6.65;1.58;;;28.80;84.20;;;;;;4993592;28;20062;-57
2022/09/04 09:59:47;;;;;;;8.30;2.05;;;28.60;85.20;;;;;;4994234;28;20042;-57
2022/09/04 10:02:37;;;;;;;4.38;1.60;;;28.60;84.40;;;;;;4993584;28;20142;-58
2022/09/04 10:05:23;;;;;;;4.95;1.30;;;29.00;83.80;;;;;;4993172;28;20553;-57
2022/09/04 10:08:00;;;;;;;2.78;1.27;;;29.70;83.70;;;;;;4993078;28;20082;-57
2022/09/04 10:11:04;;;;;;;4.30;1.30;;;30.00;82.90;;;;;;4993569;28;20054;-57
2022/09/04 10:14:02;;;;;;;5.28;1.58;;;29.60;83.10;;;;;;4993207;28;20050;-57
2022/09/04 10:16:56;;;;;;;3.33;1.25;;;30.30;81.70;;;;;;4993291;28;20082;-55
2022/09/04 10:19:25;;;;;;;4.20;1.23;;;30.30;82.90;;;;;;4993447;28;20068;-56
2022/09/04 10:22:45;;;;;;;3.72;1.30;;;30.50;81.20;;;;;;4993379;28;20056;-57
2022/09/04 10:25:47;;;;;;;5.60;1.50;;;31.20;80.80;;;;;;4935205;29;20052;-56
2022/09/04 10:28:34;;;;;;;1.42;1.17;;;31.10;80.20;;;;;;4935167;29;20058;-56
2022/09/04 10:31:19;;;;;;;5.32;1.58;;;31.50;80.80;;;;;;4935269;29;20197;-58
2022/09/04 10:34:22;;;;;;;5.47;1.40;;;31.40;79.90;;;;;;4947934;29;20549;-58
2022/09/04 10:37:08;;;;;;;2.83;1.38;;;31.90;80.90;;;;;;4953989;29;20097;-57
2022/09/04 10:43:14;;;;;;;5.82;1.25;;;31.00;80.90;;;;;;4954093;29;20043;-57
2022/09/04 10:45:54;;;;;;;3.55;1.30;;;31.30;81.30;;;;;;4954052;29;20154;-57
2022/09/04 10:49:11;;;;;;;4.18;1.23;;;31.00;81.40;;;;;;4954102;29;20055;-57
2022/09/04 10:51:55;;;;;;;4.57;1.67;;;31.10;80.50;;;;;;4961661;28;20074;-57
2022/09/04 10:54:27;;;;;;;6.43;1.30;;;31.20;79.00;;;;;;4973817;28;20536;-56
2022/09/04 10:57:17;;;;;;;3.53;1.52;;;31.40;80.70;;;;;;4973771;28;20606;-57
2022/09/04 11:00:10;;;;;;;7.68;1.40;;;31.30;80.80;;;;;;4973407;28;20130;-57
2022/09/04 11:03:12;;;;;;;5.20;1.30;;;30.60;79.70;;;;;;5031156;28;20095;-58
2022/09/04 11:05:44;;;;;;;3.80;1.27;;;30.20;79.50;;;;;;5036136;28;20049;-58
2022/09/04 11:08:28;;;;;;;2.42;1.20;;;30.00;80.60;;;;;;5031770;28;20100;-58
2022/09/04 11:11:15;;;;;;;6.30;1.83;;;30.10;80.90;;;;;;5032064;28;20053;-58
2022/09/04 11:14:02;;;;;;;4.65;1.15;;;30.20;80.80;;;;;;5040297;28;20057;-64
2022/09/04 11:17:04;;;;;;;4.70;1.50;;;30.00;82.30;;;;;;5047283;28;20110;-62
2022/09/04 11:19:52;;;;;;;3.25;1.40;;;30.20;81.30;;;;;;5042913;28;20045;-62
2022/09/04 11:22:54;;;;;;;1.75;1.10;;;30.30;81.30;;;;;;5054734;28;20060;-62
2022/09/04 11:25:38;;;;;;;4.30;1.40;;;30.50;80.30;;;;;;5067350;28;20487;-63
2022/09/04 11:28:06;;;;;;;4.85;1.10;;;30.70;81.10;;;;;;5071526;28;20052;-62
2022/09/04 11:30:58;;;;;;;2.08;1.30;;;31.60;81.60;;;;;;5070397;28;20483;-63
2022/09/04 11:33:56;;;;;;;6.25;1.30;;;31.70;79.20;;;;;;5067738;28;20144;-57
2022/09/04 11:36:38;;;;;;;3.35;1.33;;;32.20;80.60;;;;;;5069577;28;20052;-58
2022/09/04 11:39:31;;;;;;;1.63;1.10;;;31.90;80.00;;;;;;5072070;28;20047;-57
2022/09/04 11:42:19;;;;;;;7.55;1.42;;;31.60;80.10;;;;;;5069481;28;20437;-58
2022/09/04 11:45:15;;;;;;;3.38;1.17;;;31.30;79.20;;;;;;5072567;28;20040;-57
2022/09/04 11:47:59;;;;;;;3.72;1.30;;;31.10;80.90;;;;;;5029155;28;20125;-57
2022/09/04 11:51:04;;;;;;;3.35;1.20;;;31.20;78.70;;;;;;5030728;28;20049;-64
2022/09/04 11:53:51;;;;;;;2.92;1.30;;;30.90;79.70;;;;;;5031008;28;20196;-64
2022/09/04 11:56:45;;;;;;;2.20;1.38;;;31.10;80.70;;;;;;5021806;28;20077;-64
2022/09/04 11:59:33;;;;;;;6.25;1.40;;;31.20;80.60;;;;;;5028794;28;20041;-64
2022/09/04 12:02:23;;;;;;;3.15;1.35;;;31.10;81.30;;;;;;5018332;28;20045;-64
2022/09/04 12:05:10;;;;;;;6.30;1.88;;;31.90;81.10;;;;;;5031617;28;20041;-64
2022/09/04 12:07:56;;;;;;;2.83;1.80;;;32.10;80.80;;;;;;5031763;28;20057;-64
2022/09/04 12:10:58;;;;;;;4.22;1.40;;;32.40;80.30;;;;;;5025137;28;20121;-63
2022/09/04 12:13:30;;;;;;;3.33;1.55;;;32.70;79.40;;;;;;5026623;28;20135;-63
2022/09/04 12:16:08;;;;;;;2.08;1.20;;;32.90;80.30;;;;;;5023219;28;20041;-63
2022/09/04 12:19:05;;;;;;;6.97;1.60;;;32.50;77.90;;;;;;5027813;28;20443;-57
2022/09/04 12:21:55;;;;;;;5.57;1.30;;;32.90;79.80;;;;;;5016243;28;20037;-58
2022/09/04 12:24:57;;;;;;;3.03;1.08;;;32.90;80.40;;;;;;5043453;28;20501;-64
2022/09/04 12:28:11;;;;;;;5.53;1.42;;;32.90;79.40;;;;;;5071808;28;20048;-64
2022/09/04 12:30:53;;;;;;;4.28;1.20;;;32.50;79.00;;;;;;5014963;28;20042;-64
2022/09/04 12:33:43;;;;;;;2.28;1.50;;;32.20;79.20;;;;;;5006733;28;20509;-63
2022/09/04 12:36:24;;;;;;;1.83;1.25;;;32.20;79.10;;;;;;5014577;28;20057;-65
2022/09/04 12:38:57;;;;;;;2.28;1.10;;;31.90;79.90;;;;;;5015583;28;20065;-66
2022/09/04 12:41:41;;;;;;;1.73;1.13;;;31.80;80.40;;;;;;5014789;28;20050;-64
2022/09/04 12:44:12;;;;;;;1.20;0.90;;;31.80;79.90;;;;;;5014906;28;20050;-64
2022/09/04 12:47:03;;;;;;;3.67;1.20;;;32.40;80.30;;;;;;5014524;28;20088;-64
2022/09/04 12:49:43;;;;;;;1.73;1.38;;;32.40;80.60;;;;;;5014683;28;20062;-63
2022/09/04 12:52:17;;;;;;;4.65;1.20;;;32.50;80.10;;;;;;5014042;28;20045;-64
2022/09/04 12:55:21;;;;;;;2.42;1.00;;;32.40;79.80;;;;;;5012400;28;20053;-63
2022/09/04 12:58:01;;;;;;;1.23;1.02;;;32.60;80.10;;;;;;5009970;28;20520;-63
2022/09/04 13:00:35;;;;;;;4.57;1.05;;;32.80;79.10;;;;;;5013788;28;20046;-63
2022/09/04 13:03:31;;;;;;;1.45;0.93;;;33.00;79.20;;;;;;5014302;28;20065;-63
2022/09/04 13:06:32;;;;;;;2.25;1.13;;;32.60;78.40;;;;;;4940201;28;20052;-64
2022/09/04 13:09:08;;;;;;;1.63;1.05;;;32.60;79.10;;;;;;4994539;28;20086;-64
2022/09/04 13:12:14;;;;;;;5.10;1.20;;;32.00;78.90;;;;;;4994062;28;20489;-63
2022/09/04 13:14:58;;;;;;;1.83;0.95;;;32.20;80.30;;;;;;4936558;29;20134;-63
2022/09/04 13:17:42;;;;;;;2.70;1.33;;;32.00;79.40;;;;;;4935995;29;20066;-63
2022/09/04 13:20:13;;;;;;;1.38;0.90;;;31.90;79.90;;;;;;4936432;29;20147;-63
2022/09/04 13:23:05;;;;;;;1.90;1.20;;;31.70;80.30;;;;;;4920650;29;20135;-64
2022/09/04 13:26:00;;;;;;;1.58;1.30;;;31.80;79.90;;;;;;4936280;29;20399;-64
2022/09/04 13:29:07;;;;;;;1.52;1.00;;;31.70;80.00;;;;;;4936321;29;20052;-64
2022/09/04 13:31:45;;;;;;;1.00;0.90;;;31.80;80.00;;;;;;4861160;29;20064;-63
2022/09/04 13:34:22;;;;;;;3.05;1.15;;;32.10;80.70;;;;;;4861023;29;20093;-63
2022/09/04 13:37:10;;;;;;;1.77;1.10;;;32.00;80.50;;;;;;4860648;29;20506;-63
2022/09/04 13:39:59;;;;;;;1.75;1.13;;;31.50;80.00;;;;;;4859554;29;20057;-64
2022/09/04 13:42:25;;;;;;;;;;;31.60;81.00;;;;;;4854900;29;20044;-63
2022/09/04 13:44:56;;;;;;;3.33;1.05;;;31.30;79.80;;;;;;4897746;29;19919;-63
2022/09/04 13:47:29;;;;;;;5.25;1.20;;;31.20;82.20;;;;;;4898164;29;20104;-63
2022/09/04 13:50:21;;;;;;;3.30;0.82;;;31.20;80.40;;;;;;4974248;28;20155;-63
2022/09/04 13:52:56;;;;;;;3.63;0.93;;;30.60;80.90;;;;;;4916719;29;20135;-63
2022/09/04 13:55:29;;;;;;;2.88;1.25;;;30.70;81.40;;;;;;4916337;29;20555;-63
2022/09/04 13:58:09;;;;;;;2.70;1.10;;;30.70;81.30;;;;;;4916518;29;20131;-63
2022/09/04 14:00:44;;;;;;;1.83;1.13;;;30.60;80.70;;;;;;4916645;29;20051;-63
2022/09/04 14:03:20;;;;;;;4.00;0.90;;;30.20;81.50;;;;;;4917046;29;20051;-64
2022/09/04 14:05:45;;;;;;;0.95;0.90;;;30.20;82.00;;;;;;4916634;29;20044;-64
2022/09/04 14:08:16;;;;;;;2.08;1.30;;;30.10;82.30;;;;;;4964131;28;20054;-64
2022/09/04 14:11:10;;;;;;;2.47;1.00;;;30.10;81.40;;;;;;4993402;28;20461;-64
2022/09/04 14:13:50;;;;;;;3.58;1.00;;;30.10;84.60;;;;;;4993185;28;20452;-63
2022/09/04 14:16:17;;;;;;;2.45;1.10;;;29.90;82.20;;;;;;4993517;28;20062;-64
2022/09/04 14:19:18;;;;;;;3.30;0.90;;;29.80;82.70;;;;;;4993353;28;20381;-64
2022/09/04 14:22:01;;;;;;;3.13;1.50;;;29.80;81.80;;;;;;4992609;28;20058;-65
2022/09/04 14:24:39;;;;;;;2.30;1.00;;;29.60;82.00;;;;;;4992871;28;20058;-63
2022/09/04 14:27:29;;;;;;;2.33;1.20;;;29.60;83.00;;;;;;4992938;28;20050;-64
2022/09/04 14:30:06;;;;;;;3.72;1.20;;;29.50;82.50;;;;;;5044756;28;20101;-63